sensor_id;sensor_type;location;lat;lon;timestamp;temperature;humidity
53876;DHT22;39789;53.216;5.624;2022-09-09T00:00:18;14.70;99.90
53876;DHT22;39789;53.216;5.624;2022-09-09T00:03:06;14.80;99.90
53876;DHT22;39789;53.216;5.624;2022-09-09T00:05:46;14.80;99.90
53876;DHT22;39789;53.216;5.624;2022-09-09T00:08:23;14.80;99.90
53876;DHT22;39789;53.216;5.624;2022-09-09T00:10:58;14.80;99.90
53876;DHT22;39789;53.216;5.624;2022-09-09T00:13:47;14.80;99.90
53876;DHT22;39789;53.216;5.624;2022-09-09T00:16:24;14.80;99.90
53876;DHT22;39789;53.216;5.624;2022-09-09T00:21:46;14.70;99.90
53876;DHT22;39789;53.216;5.624;2022-09-09T00:24:31;14.70;99.90
53876;DHT22;39789;53.216;5.624;2022-09-09T00:27:06;14.80;99.90
53876;DHT22;39789;53.216;5.624;2022-09-09T00:30:02;14.70;99.90
53876;DHT22;39789;53.216;5.624;2022-09-09T00:32:29;14.70;99.90
53876;DHT22;39789;53.216;5.624;2022-09-09T00:35:02;14.70;99.90
53876;DHT22;39789;53.216;5.624;2022-09-09T00:37:29;14.70;99.90
53876;DHT22;39789;53.216;5.624;2022-09-09T00:39:59;14.70;99.90
53876;DHT22;39789;53.216;5.624;2022-09-09T00:42:45;14.70;99.90
53876;DHT22;39789;53.216;5.624;2022-09-09T00:55:34;14.60;99.90
53876;DHT22;39789;53.216;5.624;2022-09-09T00:58:07;14.50;99.90
53876;DHT22;39789;53.216;5.624;2022-09-09T01:04:20;14.50;99.90
53876;DHT22;39789;53.216;5.624;2022-09-09T01:06:50;15.20;99.90
53876;DHT22;39789;53.216;5.624;2022-09-09T01:09:25;14.40;99.90
53876;DHT22;39789;53.216;5.624;2022-09-09T01:12:07;14.40;99.90
53876;DHT22;39789;53.216;5.624;2022-09-09T01:17:14;14.40;99.90
53876;DHT22;39789;53.216;5.624;2022-09-09T01:22:36;14.50;99.90
53876;DHT22;39789;53.216;5.624;2022-09-09T01:25:22;14.60;99.90
53876;DHT22;39789;53.216;5.624;2022-09-09T01:27:55;14.60;99.90
53876;DHT22;39789;53.216;5.624;2022-09-09T01:30:22;14.60;99.90
53876;DHT22;39789;53.216;5.624;2022-09-09T01:32:55;14.60;99.90
53876;DHT22;39789;53.216;5.624;2022-09-09T01:35:43;14.60;99.90
53876;DHT22;39789;53.216;5.624;2022-09-09T01:38:10;14.60;99.90
53876;DHT22;39789;53.216;5.624;2022-09-09T01:40:36;14.60;99.90
53876;DHT22;39789;53.216;5.624;2022-09-09T01:43:03;14.60;99.90
53876;DHT22;39789;53.216;5.624;2022-09-09T01:45:29;14.60;99.90
53876;DHT22;39789;53.216;5.624;2022-09-09T01:47:56;14.60;99.90
53876;DHT22;39789;53.216;5.624;2022-09-09T01:50:22;14.60;99.90
53876;DHT22;39789;53.216;5.624;2022-09-09T01:52:51;14.60;99.90
53876;DHT22;39789;53.216;5.624;2022-09-09T01:55:27;14.50;99.90
53876;DHT22;39789;53.216;5.624;2022-09-09T02:00:37;14.50;99.90
53876;DHT22;39789;53.216;5.624;2022-09-09T02:03:11;14.40;99.90
53876;DHT22;39789;53.216;5.624;2022-09-09T02:05:49;14.50;99.90
53876;DHT22;39789;53.216;5.624;2022-09-09T02:08:21;14.50;99.90
53876;DHT22;39789;53.216;5.624;2022-09-09T02:11:09;15.60;99.90
53876;DHT22;39789;53.216;5.624;2022-09-09T02:13:38;14.40;99.90
53876;DHT22;39789;53.216;5.624;2022-09-09T02:16:08;14.40;99.90
53876;DHT22;39789;53.216;5.624;2022-09-09T02:18:45;14.40;99.90
53876;DHT22;39789;53.216;5.624;2022-09-09T02:21:13;14.40;99.90
53876;DHT22;39789;53.216;5.624;2022-09-09T02:23:42;14.40;99.90
53876;DHT22;39789;53.216;5.624;2022-09-09T02:26:10;14.40;99.90
53876;DHT22;39789;53.216;5.624;2022-09-09T02:28:39;14.40;99.90
53876;DHT22;39789;53.216;5.624;2022-09-09T02:31:05;14.40;99.90
53876;DHT22;39789;53.216;5.624;2022-09-09T02:33:37;14.50;99.90
53876;DHT22;39789;53.216;5.624;2022-09-09T02:36:05;14.40;99.90
53876;DHT22;39789;53.216;5.624;2022-09-09T02:38:36;14.40;99.90
53876;DHT22;39789;53.216;5.624;2022-09-09T02:41:03;14.30;99.90
53876;DHT22;39789;53.216;5.624;2022-09-09T02:43:33;14.30;99.90
53876;DHT22;39789;53.216;5.624;2022-09-09T02:46:14;14.30;99.90
53876;DHT22;39789;53.216;5.624;2022-09-09T02:48:59;14.20;99.90
53876;DHT22;39789;53.216;5.624;2022-09-09T02:51:59;14.20;99.90
53876;DHT22;39789;53.216;5.624;2022-09-09T02:54:30;14.10;99.90
53876;DHT22;39789;53.216;5.624;2022-09-09T02:59:27;14.10;99.90
53876;DHT22;39789;53.216;5.624;2022-09-09T03:01:53;14.10;99.90
53876;DHT22;39789;53.216;5.624;2022-09-09T03:04:19;14.10;99.90
53876;DHT22;39789;53.216;5.624;2022-09-09T03:06:47;14.10;99.90
53876;DHT22;39789;53.216;5.624;2022-09-09T03:09:13;14.10;99.90
53876;DHT22;39789;53.216;5.624;2022-09-09T03:11:39;14.10;99.90
53876;DHT22;39789;53.216;5.624;2022-09-09T03:14:05;14.10;99.90
53876;DHT22;39789;53.216;5.624;2022-09-09T03:16:31;14.10;99.90
53876;DHT22;39789;53.216;5.624;2022-09-09T03:18:58;14.10;99.90
53876;DHT22;39789;53.216;5.624;2022-09-09T03:21:24;14.10;99.90
53876;DHT22;39789;53.216;5.624;2022-09-09T03:23:50;14.10;99.90
53876;DHT22;39789;53.216;5.624;2022-09-09T03:26:15;14.10;99.90
53876;DHT22;39789;53.216;5.624;2022-09-09T03:28:42;15.40;99.90
53876;DHT22;39789;53.216;5.624;2022-09-09T03:31:08;14.20;99.90
53876;DHT22;39789;53.216;5.624;2022-09-09T03:33:36;14.30;99.90
53876;DHT22;39789;53.216;5.624;2022-09-09T03:36:02;14.30;99.90
53876;DHT22;39789;53.216;5.624;2022-09-09T03:38:28;14.40;99.90
53876;DHT22;39789;53.216;5.624;2022-09-09T03:40:55;14.50;99.90
53876;DHT22;39789;53.216;5.624;2022-09-09T03:43:23;15.60;99.90
53876;DHT22;39789;53.216;5.624;2022-09-09T03:45:49;14.60;99.90
53876;DHT22;39789;53.216;5.624;2022-09-09T03:48:19;14.60;99.90
53876;DHT22;39789;53.216;5.624;2022-09-09T03:50:49;14.70;99.90
53876;DHT22;39789;53.216;5.624;2022-09-09T03:53:17;14.70;99.90
53876;DHT22;39789;53.216;5.624;2022-09-09T03:55:46;14.80;99.90
53876;DHT22;39789;53.216;5.624;2022-09-09T03:58:13;14.80;99.90
53876;DHT22;39789;53.216;5.624;2022-09-09T04:00:39;14.80;99.90
53876;DHT22;39789;53.216;5.624;2022-09-09T04:03:09;14.80;99.90
53876;DHT22;39789;53.216;5.624;2022-09-09T04:05:35;14.90;99.90
53876;DHT22;39789;53.216;5.624;2022-09-09T04:08:08;14.90;99.90
53876;DHT22;39789;53.216;5.624;2022-09-09T04:10:34;14.80;99.90
53876;DHT22;39789;53.216;5.624;2022-09-09T04:13:03;14.90;99.90
53876;DHT22;39789;53.216;5.624;2022-09-09T04:15:29;14.80;99.90
53876;DHT22;39789;53.216;5.624;2022-09-09T04:17:55;14.80;99.90
53876;DHT22;39789;53.216;5.624;2022-09-09T04:20:22;14.80;99.90
53876;DHT22;39789;53.216;5.624;2022-09-09T04:22:51;14.80;99.90
53876;DHT22;39789;53.216;5.624;2022-09-09T04:25:17;14.70;99.90
53876;DHT22;39789;53.216;5.624;2022-09-09T04:27:42;15.10;99.90
53876;DHT22;39789;53.216;5.624;2022-09-09T04:30:09;14.70;99.90
53876;DHT22;39789;53.216;5.624;2022-09-09T04:36:17;14.60;99.90
53876;DHT22;39789;53.216;5.624;2022-09-09T04:38:43;14.50;99.90
53876;DHT22;39789;53.216;5.624;2022-09-09T04:41:10;14.50;99.90
53876;DHT22;39789;53.216;5.624;2022-09-09T04:43:37;14.50;99.90
53876;DHT22;39789;53.216;5.624;2022-09-09T04:46:03;14.40;99.90
53876;DHT22;39789;53.216;5.624;2022-09-09T04:48:29;14.40;99.90
53876;DHT22;39789;53.216;5.624;2022-09-09T04:51:08;14.40;99.90
53876;DHT22;39789;53.216;5.624;2022-09-09T04:53:34;14.40;99.90
53876;DHT22;39789;53.216;5.624;2022-09-09T04:56:08;14.40;99.90
53876;DHT22;39789;53.216;5.624;2022-09-09T04:58:35;14.40;99.90
53876;DHT22;39789;53.216;5.624;2022-09-09T05:01:09;14.40;99.90
53876;DHT22;39789;53.216;5.624;2022-09-09T05:03:35;14.40;99.90
53876;DHT22;39789;53.216;5.624;2022-09-09T05:06:07;14.40;99.90
53876;DHT22;39789;53.216;5.624;2022-09-09T05:08:38;14.40;99.90
53876;DHT22;39789;53.216;5.624;2022-09-09T05:13:41;14.40;99.90
53876;DHT22;39789;53.216;5.624;2022-09-09T05:16:07;14.50;99.90
53876;DHT22;39789;53.216;5.624;2022-09-09T05:18:32;14.80;99.90
53876;DHT22;39789;53.216;5.624;2022-09-09T05:21:01;14.40;99.90
53876;DHT22;39789;53.216;5.624;2022-09-09T05:23:26;14.40;99.90
53876;DHT22;39789;53.216;5.624;2022-09-09T05:25:57;14.40;99.90
53876;DHT22;39789;53.216;5.624;2022-09-09T05:28:24;14.40;99.90
53876;DHT22;39789;53.216;5.624;2022-09-09T05:31:01;14.40;99.90
53876;DHT22;39789;53.216;5.624;2022-09-09T05:33:29;14.50;99.90
53876;DHT22;39789;53.216;5.624;2022-09-09T05:35:59;14.50;99.90
53876;DHT22;39789;53.216;5.624;2022-09-09T05:38:25;14.50;99.90
53876;DHT22;39789;53.216;5.624;2022-09-09T05:40:52;14.50;99.90
53876;DHT22;39789;53.216;5.624;2022-09-09T05:43:18;14.50;99.90
53876;DHT22;39789;53.216;5.624;2022-09-09T05:45:46;14.50;99.90
53876;DHT22;39789;53.216;5.624;2022-09-09T05:48:13;14.50;99.90
53876;DHT22;39789;53.216;5.624;2022-09-09T05:50:40;14.50;99.90
53876;DHT22;39789;53.216;5.624;2022-09-09T05:53:06;14.50;99.90
53876;DHT22;39789;53.216;5.624;2022-09-09T05:55:32;14.60;99.90
53876;DHT22;39789;53.216;5.624;2022-09-09T05:57:57;14.60;99.90
53876;DHT22;39789;53.216;5.624;2022-09-09T06:00:23;14.60;99.90
53876;DHT22;39789;53.216;5.624;2022-09-09T06:02:52;15.40;99.90
53876;DHT22;39789;53.216;5.624;2022-09-09T06:05:18;14.90;99.90
53876;DHT22;39789;53.216;5.624;2022-09-09T06:07:44;14.70;99.90
53876;DHT22;39789;53.216;5.624;2022-09-09T06:10:11;14.80;99.90
53876;DHT22;39789;53.216;5.624;2022-09-09T06:12:39;15.00;99.90
53876;DHT22;39789;53.216;5.624;2022-09-09T06:15:05;15.40;99.90
53876;DHT22;39789;53.216;5.624;2022-09-09T06:17:37;15.00;99.90
53876;DHT22;39789;53.216;5.624;2022-09-09T06:20:04;16.00;99.90
53876;DHT22;39789;53.216;5.624;2022-09-09T06:22:30;15.10;99.90
53876;DHT22;39789;53.216;5.624;2022-09-09T06:24:56;15.20;99.90
53876;DHT22;39789;53.216;5.624;2022-09-09T06:27:22;15.20;99.90
53876;DHT22;39789;53.216;5.624;2022-09-09T06:29:47;16.20;99.90
53876;DHT22;39789;53.216;5.624;2022-09-09T06:32:13;15.20;99.90
53876;DHT22;39789;53.216;5.624;2022-09-09T06:34:39;15.20;99.90
53876;DHT22;39789;53.216;5.624;2022-09-09T06:37:05;15.20;99.90
53876;DHT22;39789;53.216;5.624;2022-09-09T06:39:31;15.20;99.90
53876;DHT22;39789;53.216;5.624;2022-09-09T06:41:57;15.20;99.90
53876;DHT22;39789;53.216;5.624;2022-09-09T06:44:25;15.20;99.90
53876;DHT22;39789;53.216;5.624;2022-09-09T06:46:52;15.20;99.90
53876;DHT22;39789;53.216;5.624;2022-09-09T06:49:18;15.20;99.90
53876;DHT22;39789;53.216;5.624;2022-09-09T06:51:44;15.30;99.90
53876;DHT22;39789;53.216;5.624;2022-09-09T06:54:11;15.20;99.90
53876;DHT22;39789;53.216;5.624;2022-09-09T06:56:39;15.30;99.90
53876;DHT22;39789;53.216;5.624;2022-09-09T06:59:08;15.30;99.90
53876;DHT22;39789;53.216;5.624;2022-09-09T07:01:43;15.30;99.90
53876;DHT22;39789;53.216;5.624;2022-09-09T07:04:10;15.80;99.90
53876;DHT22;39789;53.216;5.624;2022-09-09T07:06:40;16.00;99.90
53876;DHT22;39789;53.216;5.624;2022-09-09T07:09:08;15.50;99.90
53876;DHT22;39789;53.216;5.624;2022-09-09T07:11:38;15.50;99.90
53876;DHT22;39789;53.216;5.624;2022-09-09T07:14:04;15.60;99.90
53876;DHT22;39789;53.216;5.624;2022-09-09T07:16:29;16.70;99.90
53876;DHT22;39789;53.216;5.624;2022-09-09T07:18:57;15.30;99.90
53876;DHT22;39789;53.216;5.624;2022-09-09T07:21:24;15.70;99.90
53876;DHT22;39789;53.216;5.624;2022-09-09T07:23:51;15.70;99.90
53876;DHT22;39789;53.216;5.624;2022-09-09T07:26:19;15.80;99.90
53876;DHT22;39789;53.216;5.624;2022-09-09T07:28:45;15.80;99.90
53876;DHT22;39789;53.216;5.624;2022-09-09T07:34:34;15.90;99.90
53876;DHT22;39789;53.216;5.624;2022-09-09T07:37:00;15.90;99.90
53876;DHT22;39789;53.216;5.624;2022-09-09T07:39:25;16.00;99.90
53876;DHT22;39789;53.216;5.624;2022-09-09T07:41:51;16.30;99.90
53876;DHT22;39789;53.216;5.624;2022-09-09T07:44:19;16.60;99.90
53876;DHT22;39789;53.216;5.624;2022-09-09T07:46:46;17.20;99.90
53876;DHT22;39789;53.216;5.624;2022-09-09T07:49:13;17.90;99.90
53876;DHT22;39789;53.216;5.624;2022-09-09T07:51:43;18.00;99.90
53876;DHT22;39789;53.216;5.624;2022-09-09T07:54:12;19.30;99.90
53876;DHT22;39789;53.216;5.624;2022-09-09T07:56:39;19.10;99.90
53876;DHT22;39789;53.216;5.624;2022-09-09T07:59:05;19.30;99.90
53876;DHT22;39789;53.216;5.624;2022-09-09T08:01:36;18.50;99.90
53876;DHT22;39789;53.216;5.624;2022-09-09T08:04:09;19.60;99.90
53876;DHT22;39789;53.216;5.624;2022-09-09T08:06:40;19.40;99.90
53876;DHT22;39789;53.216;5.624;2022-09-09T08:09:07;19.60;99.90
53876;DHT22;39789;53.216;5.624;2022-09-09T08:11:34;19.00;99.90
53876;DHT22;39789;53.216;5.624;2022-09-09T08:17:14;18.50;99.90
53876;DHT22;39789;53.216;5.624;2022-09-09T08:19:40;18.20;99.90
53876;DHT22;39789;53.216;5.624;2022-09-09T08:22:06;18.10;99.90
53876;DHT22;39789;53.216;5.624;2022-09-09T08:24:33;18.10;99.90
53876;DHT22;39789;53.216;5.624;2022-09-09T08:26:58;17.90;99.90
53876;DHT22;39789;53.216;5.624;2022-09-09T08:29:25;17.80;99.90
53876;DHT22;39789;53.216;5.624;2022-09-09T08:31:53;17.70;99.90
53876;DHT22;39789;53.216;5.624;2022-09-09T08:34:20;18.40;99.90
53876;DHT22;39789;53.216;5.624;2022-09-09T08:36:47;18.30;99.90
53876;DHT22;39789;53.216;5.624;2022-09-09T08:39:15;18.20;99.90
53876;DHT22;39789;53.216;5.624;2022-09-09T08:44:42;18.30;99.90
53876;DHT22;39789;53.216;5.624;2022-09-09T08:49:56;18.20;99.90
53876;DHT22;39789;53.216;5.624;2022-09-09T08:59:21;17.70;99.90
53876;DHT22;39789;53.216;5.624;2022-09-09T09:02:04;17.60;99.90
53876;DHT22;39789;53.216;5.624;2022-09-09T09:04:45;17.50;99.90
53876;DHT22;39789;53.216;5.624;2022-09-09T09:07:34;17.50;99.90
53876;DHT22;39789;53.216;5.624;2022-09-09T09:10:34;17.40;99.90
53876;DHT22;39789;53.216;5.624;2022-09-09T09:16:02;17.30;99.90
53876;DHT22;39789;53.216;5.624;2022-09-09T09:18:30;17.30;99.90
53876;DHT22;39789;53.216;5.624;2022-09-09T09:21:25;17.10;99.90
53876;DHT22;39789;53.216;5.624;2022-09-09T09:23:57;17.20;99.90
53876;DHT22;39789;53.216;5.624;2022-09-09T09:26:33;17.30;99.90
53876;DHT22;39789;53.216;5.624;2022-09-09T09:28:59;17.40;99.90
53876;DHT22;39789;53.216;5.624;2022-09-09T09:31:26;17.60;99.90
53876;DHT22;39789;53.216;5.624;2022-09-09T09:33:56;17.70;99.90
53876;DHT22;39789;53.216;5.624;2022-09-09T09:36:37;18.30;99.90
53876;DHT22;39789;53.216;5.624;2022-09-09T09:39:04;17.80;99.90
53876;DHT22;39789;53.216;5.624;2022-09-09T09:41:34;17.80;99.90
53876;DHT22;39789;53.216;5.624;2022-09-09T09:44:01;17.90;99.90
53876;DHT22;39789;53.216;5.624;2022-09-09T09:46:27;18.10;99.90
53876;DHT22;39789;53.216;5.624;2022-09-09T09:49:00;17.80;99.90
53876;DHT22;39789;53.216;5.624;2022-09-09T09:51:27;17.90;99.90
53876;DHT22;39789;53.216;5.624;2022-09-09T09:53:53;18.50;99.90
53876;DHT22;39789;53.216;5.624;2022-09-09T09:56:27;17.90;99.90
53876;DHT22;39789;53.216;5.624;2022-09-09T09:59:00;18.00;99.90
53876;DHT22;39789;53.216;5.624;2022-09-09T10:01:32;18.80;99.90
53876;DHT22;39789;53.216;5.624;2022-09-09T10:04:13;17.90;99.90
53876;DHT22;39789;53.216;5.624;2022-09-09T10:06:40;18.30;99.90
53876;DHT22;39789;53.216;5.624;2022-09-09T10:09:27;18.00;99.90
53876;DHT22;39789;53.216;5.624;2022-09-09T10:17:36;18.20;99.90
53876;DHT22;39789;53.216;5.624;2022-09-09T10:23:42;18.50;99.90
53876;DHT22;39789;53.216;5.624;2022-09-09T10:32:40;18.70;99.90
53876;DHT22;39789;53.216;5.624;2022-09-09T10:35:26;19.20;99.90
53876;DHT22;39789;53.216;5.624;2022-09-09T10:46:32;18.80;99.90
53876;DHT22;39789;53.216;5.624;2022-09-09T10:49:16;18.80;99.90
53876;DHT22;39789;53.216;5.624;2022-09-09T11:00:01;19.20;99.90
53876;DHT22;39789;53.216;5.624;2022-09-09T11:02:33;19.20;99.90
53876;DHT22;39789;53.216;5.624;2022-09-09T11:07:47;19.00;99.90
53876;DHT22;39789;53.216;5.624;2022-09-09T11:13:13;18.90;99.90
53876;DHT22;39789;53.216;5.624;2022-09-09T11:15:50;18.90;99.90
53876;DHT22;39789;53.216;5.624;2022-09-09T11:18:20;18.80;99.90
53876;DHT22;39789;53.216;5.624;2022-09-09T11:20:52;18.70;99.90
53876;DHT22;39789;53.216;5.624;2022-09-09T11:23:32;18.60;99.90
53876;DHT22;39789;53.216;5.624;2022-09-09T11:26:01;18.40;99.90
53876;DHT22;39789;53.216;5.624;2022-09-09T11:29:11;18.30;99.90
53876;DHT22;39789;53.216;5.624;2022-09-09T11:34:53;18.10;99.90
53876;DHT22;39789;53.216;5.624;2022-09-09T11:42:36;18.40;99.90
53876;DHT22;39789;53.216;5.624;2022-09-09T11:45:20;18.50;99.90
53876;DHT22;39789;53.216;5.624;2022-09-09T11:47:55;18.70;99.90
53876;DHT22;39789;53.216;5.624;2022-09-09T11:52:47;19.10;99.90
53876;DHT22;39789;53.216;5.624;2022-09-09T11:58:17;19.00;99.90
53876;DHT22;39789;53.216;5.624;2022-09-09T12:00:46;19.00;99.90
53876;DHT22;39789;53.216;5.624;2022-09-09T12:05:57;19.30;99.90
53876;DHT22;39789;53.216;5.624;2022-09-09T12:08:27;18.90;99.90
53876;DHT22;39789;53.216;5.624;2022-09-09T12:10:58;19.00;99.90
53876;DHT22;39789;53.216;5.624;2022-09-09T12:13:26;19.60;99.90
53876;DHT22;39789;53.216;5.624;2022-09-09T12:15:54;19.00;99.90
53876;DHT22;39789;53.216;5.624;2022-09-09T12:18:37;18.40;99.90
53876;DHT22;39789;53.216;5.624;2022-09-09T12:24:09;18.90;99.90
53876;DHT22;39789;53.216;5.624;2022-09-09T12:27:05;18.80;99.90
53876;DHT22;39789;53.216;5.624;2022-09-09T12:29:55;18.50;99.90
53876;DHT22;39789;53.216;5.624;2022-09-09T12:32:25;18.40;99.90
53876;DHT22;39789;53.216;5.624;2022-09-09T12:34:59;18.40;99.90
53876;DHT22;39789;53.216;5.624;2022-09-09T12:39:56;18.70;99.90
53876;DHT22;39789;53.216;5.624;2022-09-09T12:42:23;19.40;99.90
53876;DHT22;39789;53.216;5.624;2022-09-09T12:44:54;19.50;99.90
53876;DHT22;39789;53.216;5.624;2022-09-09T12:50:29;19.10;99.90
53876;DHT22;39789;53.216;5.624;2022-09-09T12:53:19;19.10;99.90
53876;DHT22;39789;53.216;5.624;2022-09-09T12:56:02;19.10;99.90
53876;DHT22;39789;53.216;5.624;2022-09-09T12:58:29;19.10;99.90
53876;DHT22;39789;53.216;5.624;2022-09-09T13:00:59;19.10;99.90
53876;DHT22;39789;53.216;5.624;2022-09-09T13:03:25;19.10;99.90
53876;DHT22;39789;53.216;5.624;2022-09-09T13:05:52;19.00;99.90
53876;DHT22;39789;53.216;5.624;2022-09-09T13:08:19;19.30;99.90
53876;DHT22;39789;53.216;5.624;2022-09-09T13:10:55;19.50;99.90
53876;DHT22;39789;53.216;5.624;2022-09-09T13:13:27;19.30;99.90
53876;DHT22;39789;53.216;5.624;2022-09-09T13:15:58;19.30;99.90
53876;DHT22;39789;53.216;5.624;2022-09-09T13:18:42;19.80;99.90
53876;DHT22;39789;53.216;5.624;2022-09-09T13:21:09;19.50;99.90
53876;DHT22;39789;53.216;5.624;2022-09-09T13:23:36;19.30;99.90
53876;DHT22;39789;53.216;5.624;2022-09-09T13:26:23;20.10;99.90
53876;DHT22;39789;53.216;5.624;2022-09-09T13:28:48;19.40;99.90
53876;DHT22;39789;53.216;5.624;2022-09-09T13:31:29;19.40;99.90
53876;DHT22;39789;53.216;5.624;2022-09-09T13:33:55;19.30;99.90
53876;DHT22;39789;53.216;5.624;2022-09-09T13:36:30;19.00;99.90
53876;DHT22;39789;53.216;5.624;2022-09-09T13:39:01;18.70;99.90
53876;DHT22;39789;53.216;5.624;2022-09-09T13:41:34;18.60;99.90
53876;DHT22;39789;53.216;5.624;2022-09-09T13:44:01;18.50;99.90
53876;DHT22;39789;53.216;5.624;2022-09-09T13:46:40;18.60;99.90
53876;DHT22;39789;53.216;5.624;2022-09-09T13:51:47;19.00;99.90
53876;DHT22;39789;53.216;5.624;2022-09-09T13:54:15;19.40;99.90
53876;DHT22;39789;53.216;5.624;2022-09-09T13:56:42;19.70;99.90
53876;DHT22;39789;53.216;5.624;2022-09-09T13:59:14;19.80;99.90
53876;DHT22;39789;53.216;5.624;2022-09-09T14:01:40;20.00;99.90
53876;DHT22;39789;53.216;5.624;2022-09-09T14:04:06;20.20;99.90
53876;DHT22;39789;53.216;5.624;2022-09-09T14:06:33;20.30;99.90
53876;DHT22;39789;53.216;5.624;2022-09-09T14:09:02;20.20;99.90
53876;DHT22;39789;53.216;5.624;2022-09-09T14:11:28;20.20;99.90
53876;DHT22;39789;53.216;5.624;2022-09-09T14:13:53;20.30;99.90
53876;DHT22;39789;53.216;5.624;2022-09-09T14:16:19;20.10;99.90
53876;DHT22;39789;53.216;5.624;2022-09-09T14:18:47;20.10;99.90
53876;DHT22;39789;53.216;5.624;2022-09-09T14:21:13;19.10;99.90
53876;DHT22;39789;53.216;5.624;2022-09-09T14:23:38;19.00;99.90
53876;DHT22;39789;53.216;5.624;2022-09-09T14:26:05;18.90;99.90
53876;DHT22;39789;53.216;5.624;2022-09-09T14:28:31;18.90;99.90
53876;DHT22;39789;53.216;5.624;2022-09-09T14:31:00;18.90;99.90
53876;DHT22;39789;53.216;5.624;2022-09-09T14:33:26;19.10;99.90
53876;DHT22;39789;53.216;5.624;2022-09-09T14:35:58;19.40;99.90
53876;DHT22;39789;53.216;5.624;2022-09-09T14:38:25;19.20;99.90
53876;DHT22;39789;53.216;5.624;2022-09-09T14:40:53;19.30;99.90
53876;DHT22;39789;53.216;5.624;2022-09-09T14:43:19;19.40;99.90
53876;DHT22;39789;53.216;5.624;2022-09-09T14:45:45;19.30;99.90
53876;DHT22;39789;53.216;5.624;2022-09-09T14:48:13;19.20;99.90
53876;DHT22;39789;53.216;5.624;2022-09-09T14:50:41;19.40;99.90
53876;DHT22;39789;53.216;5.624;2022-09-09T14:53:07;19.20;99.90
53876;DHT22;39789;53.216;5.624;2022-09-09T14:55:34;18.70;99.90
53876;DHT22;39789;53.216;5.624;2022-09-09T14:58:00;18.60;99.90
53876;DHT22;39789;53.216;5.624;2022-09-09T15:00:26;19.20;99.90
53876;DHT22;39789;53.216;5.624;2022-09-09T15:02:54;18.00;99.90
53876;DHT22;39789;53.216;5.624;2022-09-09T15:05:20;18.50;99.90
53876;DHT22;39789;53.216;5.624;2022-09-09T15:07:46;17.80;99.90
53876;DHT22;39789;53.216;5.624;2022-09-09T15:10:13;17.70;99.90
53876;DHT22;39789;53.216;5.624;2022-09-09T15:12:39;17.70;99.90
53876;DHT22;39789;53.216;5.624;2022-09-09T15:18:47;17.90;99.90
53876;DHT22;39789;53.216;5.624;2022-09-09T15:21:17;18.00;99.90
53876;DHT22;39789;53.216;5.624;2022-09-09T15:23:45;18.40;99.90
53876;DHT22;39789;53.216;5.624;2022-09-09T15:26:11;18.20;99.90
53876;DHT22;39789;53.216;5.624;2022-09-09T15:28:40;18.20;99.90
53876;DHT22;39789;53.216;5.624;2022-09-09T15:31:07;18.40;99.90
53876;DHT22;39789;53.216;5.624;2022-09-09T15:33:33;18.70;99.90
53876;DHT22;39789;53.216;5.624;2022-09-09T15:35:59;18.90;99.90
53876;DHT22;39789;53.216;5.624;2022-09-09T15:38:25;19.00;99.90
53876;DHT22;39789;53.216;5.624;2022-09-09T15:44:39;19.10;99.90
53876;DHT22;39789;53.216;5.624;2022-09-09T15:47:05;19.60;99.90
53876;DHT22;39789;53.216;5.624;2022-09-09T15:49:30;19.60;99.90
53876;DHT22;39789;53.216;5.624;2022-09-09T15:51:58;19.30;99.90
53876;DHT22;39789;53.216;5.624;2022-09-09T15:54:25;19.10;99.90
53876;DHT22;39789;53.216;5.624;2022-09-09T15:56:54;19.30;99.90
53876;DHT22;39789;53.216;5.624;2022-09-09T15:59:22;19.30;99.90
53876;DHT22;39789;53.216;5.624;2022-09-09T16:01:48;19.30;99.90
53876;DHT22;39789;53.216;5.624;2022-09-09T16:04:17;19.30;99.90
53876;DHT22;39789;53.216;5.624;2022-09-09T16:06:52;19.60;99.90
53876;DHT22;39789;53.216;5.624;2022-09-09T16:09:19;19.10;99.90
53876;DHT22;39789;53.216;5.624;2022-09-09T16:11:45;19.70;99.90
53876;DHT22;39789;53.216;5.624;2022-09-09T16:14:12;18.90;99.90
53876;DHT22;39789;53.216;5.624;2022-09-09T16:16:38;19.20;99.90
53876;DHT22;39789;53.216;5.624;2022-09-09T16:19:08;18.50;99.90
53876;DHT22;39789;53.216;5.624;2022-09-09T16:21:45;18.40;99.90
53876;DHT22;39789;53.216;5.624;2022-09-09T16:24:14;18.10;99.90
53876;DHT22;39789;53.216;5.624;2022-09-09T16:26:49;17.70;99.90
53876;DHT22;39789;53.216;5.624;2022-09-09T16:29:16;17.50;99.90
53876;DHT22;39789;53.216;5.624;2022-09-09T16:31:43;17.30;99.90
53876;DHT22;39789;53.216;5.624;2022-09-09T16:34:09;17.20;99.90
53876;DHT22;39789;53.216;5.624;2022-09-09T16:36:37;17.90;99.90
53876;DHT22;39789;53.216;5.624;2022-09-09T16:39:07;17.20;99.90
53876;DHT22;39789;53.216;5.624;2022-09-09T16:41:34;17.10;99.90
53876;DHT22;39789;53.216;5.624;2022-09-09T16:44:02;17.10;99.90
53876;DHT22;39789;53.216;5.624;2022-09-09T16:46:30;17.10;99.90
53876;DHT22;39789;53.216;5.624;2022-09-09T16:48:58;17.10;99.90
53876;DHT22;39789;53.216;5.624;2022-09-09T16:51:27;17.20;99.90
53876;DHT22;39789;53.216;5.624;2022-09-09T16:53:54;17.70;99.90
53876;DHT22;39789;53.216;5.624;2022-09-09T16:56:25;17.10;99.90
53876;DHT22;39789;53.216;5.624;2022-09-09T16:58:56;17.10;99.90
53876;DHT22;39789;53.216;5.624;2022-09-09T17:01:23;17.10;99.90
53876;DHT22;39789;53.216;5.624;2022-09-09T17:03:53;17.50;99.90
53876;DHT22;39789;53.216;5.624;2022-09-09T17:06:21;17.20;99.90
53876;DHT22;39789;53.216;5.624;2022-09-09T17:08:47;17.30;99.90
53876;DHT22;39789;53.216;5.624;2022-09-09T17:11:15;17.60;99.90
53876;DHT22;39789;53.216;5.624;2022-09-09T17:13:45;17.40;99.90
53876;DHT22;39789;53.216;5.624;2022-09-09T17:16:12;17.50;99.90
53876;DHT22;39789;53.216;5.624;2022-09-09T17:18:38;17.50;99.90
53876;DHT22;39789;53.216;5.624;2022-09-09T17:21:06;17.50;99.90
53876;DHT22;39789;53.216;5.624;2022-09-09T17:23:35;17.50;99.90
53876;DHT22;39789;53.216;5.624;2022-09-09T17:26:04;17.40;99.90
53876;DHT22;39789;53.216;5.624;2022-09-09T17:28:31;17.40;99.90
53876;DHT22;39789;53.216;5.624;2022-09-09T17:31:01;17.30;99.90
53876;DHT22;39789;53.216;5.624;2022-09-09T17:33:29;17.30;99.90
53876;DHT22;39789;53.216;5.624;2022-09-09T17:36:05;17.20;99.90
53876;DHT22;39789;53.216;5.624;2022-09-09T17:38:32;17.20;99.90
53876;DHT22;39789;53.216;5.624;2022-09-09T17:41:09;17.20;99.90
53876;DHT22;39789;53.216;5.624;2022-09-09T17:43:35;17.10;99.90
53876;DHT22;39789;53.216;5.624;2022-09-09T17:46:07;17.10;99.90
53876;DHT22;39789;53.216;5.624;2022-09-09T17:48:33;17.00;99.90
53876;DHT22;39789;53.216;5.624;2022-09-09T17:50:59;17.00;99.90
53876;DHT22;39789;53.216;5.624;2022-09-09T17:53:25;17.00;99.90
53876;DHT22;39789;53.216;5.624;2022-09-09T17:55:51;17.90;99.90